Agana Heights, GU

11:34 AM ChST on December 19, 2014 (GMT +1000)
Rota I International | Change Station
CLOSE
Current Station
Airport
Location: Rota,
Elevation: 607 ft
Nearby Weather Stations

Elev 607 ft 14.17 °N, 145.24 °E | Updated 44 minutes ago

Scattered Clouds
Scattered Clouds
82 °F
Feels Like 90 °F
N
17
Wind Variable Wind from NE
Gusts 28 mph

Today
High -- | Low -- °F
--% Chance of Precip.
Yesterday
High -- | Low -- °F
Precip. -- in
6:37 AM 5:57 PM
Waning Crescent, 11% visible
Pressure 29.98 in
Visibility 7.0 miles
Clouds Few 2000 ft
Scattered Clouds 6000 ft
Heat Index 90 °F
Dew Point 75 °F
Humidity 79%
Rainfall 0.00 in
Snow Depth Not available.
UV 7 out of 12
Pollen Not available.
Air Quality Not available.
Flu Activity Not available.
METAR PGRO 190050Z 05015G24KT 7SM FEW020 SCT060 28/24 A2998

More Conditions Fewer Conditions

Pressure 29.98 in
Visibility 7.0 miles
Clouds Few 2000 ft
Scattered Clouds 6000 ft
Heat Index 90 °F
Dew Point 75 °F
Humidity 79%
Rainfall 0.00 in
Snow Depth Not available.
UV 7 out of 12
Pollen Not available.
Air Quality Not available.
Flu Activity Not available.
METAR PGRO 190050Z 05015G24KT 7SM FEW020 SCT060 28/24 A2998

More Conditions Fewer Conditions

10-Day Weather Forecast

Almanac

Astronomy

Dec. 19, 2014 Rise Set
Actual Time
Civil Twilight
Nautical Twilight
Astronomical Twilight
Moon
Length of Visible Light
Length of Day
Tomorrow will be .
, % of the Moon is Illuminated

Today's Extremes

State Highs State Lows

Community

WunderPhotos

Upload Photos

1,779,032 photos uploaded!

WunderBlogs® & News

Nearby

Air Quality

  Air Quality AQ Index Pollutant
Not available.

Snow Depth

Station Depth Elevation

Earthquake Activity

City Distance Mag. Time & Date
Minimum magnitude displayed is 2.5.

Coastal Water Temperatures

Place Temperature

Nearby Weather Stations